Airfield :







YOU CAN JOIN US ON...

 
LOGIN :

Register | Disclaimer

   EN    FR    IT 

 









Legend :    VFR   Marginal VFR   IFR   Intensive IFR   Very Intensive IFR
Visi :
Ceiling :
>= 8 km
>= 3000ft
5 to 8 km
1000 to 3000 ft
1500m to 5 km
500 to 1000 ft
800 to 1500m
200 to 500 ft
< 800m
< 200 ft
Symbols :   Thunderstorms  Fog  Heavy snow  Heavy precipitations  Wind > 20 kt







- Airport Elevation : 377 ft
- IATA code : YPS


CYPD - Port Hawkesbury

CURRENT METAR :
  • 170844Z AUTO 34005KT 320V030 7SM FEW008 BKN013 OVC017 12/11 A2982 RMK SLP100

EXPIRED METARs :
  • 170832Z AUTO 34005KT 300V010 3SM -RA BR SCT011 OVC017 12/11 A2981 RMK SLP099
  • 170809Z AUTO 01004KT 310V040 9SM SCT005 OVC013 12/12 A2981 RMK SLP098
  • 170800Z AUTO 31004KT 7SM BKN005 OVC013 12/12 A2981 RMK SLP096
  • 170755Z AUTO 29005KT 6SM BR OVC005 12/12 A2981 RMK SLP097
  • 170709Z AUTO 31007KT 3SM BR BKN005 OVC009 12/11 A2981 RMK SLP096
  • 170704Z AUTO 30008KT 3SM -RA BR OVC005 12/11 A2981 RMK SLP096
  • 170641Z AUTO 32007KT 270V360 2 1/2SM BR OVC005 12/11 A2981 RMK VIS VRB 2-3 SLP097
  • 170631Z AUTO 32006KT 290V010 5SM BR OVC007 12/11 A2981 RMK SLP097
  • 170620Z AUTO 32005KT 290V350 3SM -RA BR OVC007 12/11 A2981 RMK SLP097
  • 170614Z AUTO 31006G16KT 290V360 5SM BR OVC007 12/11 A2981 RMK SLP096
  • 170600Z AUTO 31006KT 270V340 6SM BR OVC007 12/11 A2981 RMK SLP096

TAF N/A
No reported NOTAMs for that airfield.



MET'MAP, your aeronautical weather chart ! - Copyright ORBIFLY December 2007 - Disclaimer

ORBIFLY MET'MAP TEAM :

Programming & Development : Alexandra Zaïnal
Concept & Development : Baudouin d'Aumeries
Co-Development & Prog : Marc-Olivier Méhu
Technical & hardware support : Manuel Goepfert

Contact : metmap@orbifly.com




SOURCES & CREDITS :

   NOAA